sensor_id;sensor_type;location;lat;lon;timestamp;P1;durP1;ratioP1;P2;durP2;ratioP2
26588;SDS011;14235;48.532;8.722;2023-03-14T00:02:06;0.90;;;0.90;;
26588;SDS011;14235;48.532;8.722;2023-03-14T00:04:32;1.08;;;0.93;;
26588;SDS011;14235;48.532;8.722;2023-03-14T00:06:57;1.50;;;0.70;;
26588;SDS011;14235;48.532;8.722;2023-03-14T00:09:23;1.08;;;0.75;;
26588;SDS011;14235;48.532;8.722;2023-03-14T00:11:48;2.20;;;0.90;;
26588;SDS011;14235;48.532;8.722;2023-03-14T00:14:14;0.70;;;0.70;;
26588;SDS011;14235;48.532;8.722;2023-03-14T00:16:41;0.80;;;0.80;;
26588;SDS011;14235;48.532;8.722;2023-03-14T00:19:10;0.60;;;0.60;;
26588;SDS011;14235;48.532;8.722;2023-03-14T00:21:35;1.17;;;0.75;;
26588;SDS011;14235;48.532;8.722;2023-03-14T00:24:01;0.93;;;0.77;;
26588;SDS011;14235;48.532;8.722;2023-03-14T00:26:26;0.85;;;0.85;;
26588;SDS011;14235;48.532;8.722;2023-03-14T00:28:53;1.67;;;0.77;;
26588;SDS011;14235;48.532;8.722;2023-03-14T00:31:19;1.05;;;0.95;;
26588;SDS011;14235;48.532;8.722;2023-03-14T00:33:45;0.70;;;0.70;;
26588;SDS011;14235;48.532;8.722;2023-03-14T00:36:12;0.70;;;0.70;;
26588;SDS011;14235;48.532;8.722;2023-03-14T00:38:42;1.08;;;0.60;;
26588;SDS011;14235;48.532;8.722;2023-03-14T00:41:13;2.05;;;1.05;;
26588;SDS011;14235;48.532;8.722;2023-03-14T00:43:41;1.13;;;0.70;;
26588;SDS011;14235;48.532;8.722;2023-03-14T00:46:06;0.57;;;0.57;;
26588;SDS011;14235;48.532;8.722;2023-03-14T00:48:33;1.10;;;0.93;;
26588;SDS011;14235;48.532;8.722;2023-03-14T00:50:58;1.83;;;0.80;;
26588;SDS011;14235;48.532;8.722;2023-03-14T00:53:24;0.90;;;0.77;;
26588;SDS011;14235;48.532;8.722;2023-03-14T00:55:50;0.65;;;0.65;;
26588;SDS011;14235;48.532;8.722;2023-03-14T00:58:16;0.85;;;0.77;;
26588;SDS011;14235;48.532;8.722;2023-03-14T01:00:43;0.60;;;0.60;;
26588;SDS011;14235;48.532;8.722;2023-03-14T01:03:10;0.95;;;0.52;;
26588;SDS011;14235;48.532;8.722;2023-03-14T01:05:37;0.70;;;0.70;;
26588;SDS011;14235;48.532;8.722;2023-03-14T01:08:03;0.63;;;0.50;;
26588;SDS011;14235;48.532;8.722;2023-03-14T01:10:29;4.57;;;0.93;;
26588;SDS011;14235;48.532;8.722;2023-03-14T01:12:55;2.22;;;0.32;;
26588;SDS011;14235;48.532;8.722;2023-03-14T01:15:21;0.68;;;0.60;;
26588;SDS011;14235;48.532;8.722;2023-03-14T01:17:47;0.60;;;0.60;;
26588;SDS011;14235;48.532;8.722;2023-03-14T01:20:13;0.40;;;0.40;;
26588;SDS011;14235;48.532;8.722;2023-03-14T01:22:40;0.65;;;0.30;;
26588;SDS011;14235;48.532;8.722;2023-03-14T01:25:07;0.43;;;0.43;;
26588;SDS011;14235;48.532;8.722;2023-03-14T01:27:34;0.63;;;0.32;;
26588;SDS011;14235;48.532;8.722;2023-03-14T01:30:00;0.30;;;0.30;;
26588;SDS011;14235;48.532;8.722;2023-03-14T01:32:25;1.00;;;0.60;;
26588;SDS011;14235;48.532;8.722;2023-03-14T01:34:51;0.50;;;0.50;;
26588;SDS011;14235;48.532;8.722;2023-03-14T01:37:17;0.40;;;0.40;;
26588;SDS011;14235;48.532;8.722;2023-03-14T01:39:43;0.90;;;0.50;;
26588;SDS011;14235;48.532;8.722;2023-03-14T01:42:08;0.50;;;0.50;;
26588;SDS011;14235;48.532;8.722;2023-03-14T01:44:47;0.60;;;0.50;;
26588;SDS011;14235;48.532;8.722;2023-03-14T01:47:18;0.95;;;0.65;;
26588;SDS011;14235;48.532;8.722;2023-03-14T01:49:45;0.60;;;0.60;;
26588;SDS011;14235;48.532;8.722;2023-03-14T01:52:33;0.43;;;0.43;;
26588;SDS011;14235;48.532;8.722;2023-03-14T01:55:12;0.70;;;0.55;;
26588;SDS011;14235;48.532;8.722;2023-03-14T01:57:43;1.83;;;0.60;;
26588;SDS011;14235;48.532;8.722;2023-03-14T02:00:13;0.50;;;0.50;;
26588;SDS011;14235;48.532;8.722;2023-03-14T02:02:41;1.33;;;0.22;;
26588;SDS011;14235;48.532;8.722;2023-03-14T02:05:13;0.30;;;0.30;;
26588;SDS011;14235;48.532;8.722;2023-03-14T02:07:55;0.40;;;0.40;;
26588;SDS011;14235;48.532;8.722;2023-03-14T02:10:25;1.10;;;0.40;;
26588;SDS011;14235;48.532;8.722;2023-03-14T02:12:53;0.52;;;0.40;;
26588;SDS011;14235;48.532;8.722;2023-03-14T02:15:21;1.48;;;0.70;;
26588;SDS011;14235;48.532;8.722;2023-03-14T02:17:47;0.52;;;0.52;;
26588;SDS011;14235;48.532;8.722;2023-03-14T02:22:42;0.38;;;0.38;;
26588;SDS011;14235;48.532;8.722;2023-03-14T02:27:44;2.17;;;0.65;;
26588;SDS011;14235;48.532;8.722;2023-03-14T02:30:12;0.75;;;0.57;;
26588;SDS011;14235;48.532;8.722;2023-03-14T02:32:48;0.68;;;0.68;;
26588;SDS011;14235;48.532;8.722;2023-03-14T02:35:24;0.43;;;0.40;;
26588;SDS011;14235;48.532;8.722;2023-03-14T02:40:22;2.67;;;0.73;;
26588;SDS011;14235;48.532;8.722;2023-03-14T02:42:48;1.88;;;0.60;;
26588;SDS011;14235;48.532;8.722;2023-03-14T02:47:40;0.90;;;0.65;;
26588;SDS011;14235;48.532;8.722;2023-03-14T02:50:12;2.90;;;0.70;;
26588;SDS011;14235;48.532;8.722;2023-03-14T02:52:40;0.50;;;0.50;;
26588;SDS011;14235;48.532;8.722;2023-03-14T02:55:06;1.13;;;0.60;;
26588;SDS011;14235;48.532;8.722;2023-03-14T02:57:32;2.47;;;0.60;;
26588;SDS011;14235;48.532;8.722;2023-03-14T02:59:58;1.67;;;0.75;;
26588;SDS011;14235;48.532;8.722;2023-03-14T03:02:25;1.42;;;0.80;;
26588;SDS011;14235;48.532;8.722;2023-03-14T03:04:50;1.40;;;0.57;;
26588;SDS011;14235;48.532;8.722;2023-03-14T03:07:16;1.15;;;0.57;;
26588;SDS011;14235;48.532;8.722;2023-03-14T03:09:42;2.15;;;0.73;;
26588;SDS011;14235;48.532;8.722;2023-03-14T03:12:07;1.92;;;0.70;;
26588;SDS011;14235;48.532;8.722;2023-03-14T03:14:33;2.00;;;0.60;;
26588;SDS011;14235;48.532;8.722;2023-03-14T03:16:58;2.80;;;0.90;;
26588;SDS011;14235;48.532;8.722;2023-03-14T03:19:24;1.92;;;0.80;;
26588;SDS011;14235;48.532;8.722;2023-03-14T03:21:49;2.53;;;0.80;;
26588;SDS011;14235;48.532;8.722;2023-03-14T03:24:15;1.75;;;0.65;;
26588;SDS011;14235;48.532;8.722;2023-03-14T03:26:40;1.10;;;0.80;;
26588;SDS011;14235;48.532;8.722;2023-03-14T03:29:06;1.70;;;0.93;;
26588;SDS011;14235;48.532;8.722;2023-03-14T03:31:32;0.93;;;0.77;;
26588;SDS011;14235;48.532;8.722;2023-03-14T03:33:57;3.22;;;0.95;;
26588;SDS011;14235;48.532;8.722;2023-03-14T03:36:23;3.10;;;1.10;;
26588;SDS011;14235;48.532;8.722;2023-03-14T03:38:50;4.18;;;1.45;;
26588;SDS011;14235;48.532;8.722;2023-03-14T03:41:16;2.78;;;0.93;;
26588;SDS011;14235;48.532;8.722;2023-03-14T03:43:41;3.47;;;0.75;;
26588;SDS011;14235;48.532;8.722;2023-03-14T03:46:07;1.65;;;0.73;;
26588;SDS011;14235;48.532;8.722;2023-03-14T03:48:33;2.28;;;0.80;;
26588;SDS011;14235;48.532;8.722;2023-03-14T03:50:59;1.75;;;0.77;;
26588;SDS011;14235;48.532;8.722;2023-03-14T03:53:26;2.33;;;0.88;;
26588;SDS011;14235;48.532;8.722;2023-03-14T03:55:52;2.17;;;0.93;;
26588;SDS011;14235;48.532;8.722;2023-03-14T03:58:17;0.88;;;0.70;;
26588;SDS011;14235;48.532;8.722;2023-03-14T04:00:43;2.63;;;1.00;;
26588;SDS011;14235;48.532;8.722;2023-03-14T04:03:09;2.38;;;0.82;;
26588;SDS011;14235;48.532;8.722;2023-03-14T04:05:34;2.80;;;1.00;;
26588;SDS011;14235;48.532;8.722;2023-03-14T04:08:00;2.67;;;0.50;;
26588;SDS011;14235;48.532;8.722;2023-03-14T04:10:26;4.45;;;1.10;;
26588;SDS011;14235;48.532;8.722;2023-03-14T04:12:51;0.82;;;0.75;;
26588;SDS011;14235;48.532;8.722;2023-03-14T04:15:17;2.03;;;0.73;;
26588;SDS011;14235;48.532;8.722;2023-03-14T04:17:43;1.98;;;0.90;;
26588;SDS011;14235;48.532;8.722;2023-03-14T04:20:09;3.17;;;0.80;;
26588;SDS011;14235;48.532;8.722;2023-03-14T04:22:38;3.05;;;1.25;;
26588;SDS011;14235;48.532;8.722;2023-03-14T04:25:04;1.27;;;0.70;;
26588;SDS011;14235;48.532;8.722;2023-03-14T04:27:31;2.50;;;1.00;;
26588;SDS011;14235;48.532;8.722;2023-03-14T04:29:56;2.63;;;0.93;;
26588;SDS011;14235;48.532;8.722;2023-03-14T04:32:22;1.92;;;1.02;;
26588;SDS011;14235;48.532;8.722;2023-03-14T04:34:47;1.48;;;0.75;;
26588;SDS011;14235;48.532;8.722;2023-03-14T04:37:13;2.53;;;1.38;;
26588;SDS011;14235;48.532;8.722;2023-03-14T04:39:39;2.88;;;0.90;;
26588;SDS011;14235;48.532;8.722;2023-03-14T04:42:04;1.48;;;0.70;;
26588;SDS011;14235;48.532;8.722;2023-03-14T04:44:30;1.48;;;1.00;;
26588;SDS011;14235;48.532;8.722;2023-03-14T04:46:56;1.17;;;0.73;;
26588;SDS011;14235;48.532;8.722;2023-03-14T04:49:21;3.45;;;0.93;;
26588;SDS011;14235;48.532;8.722;2023-03-14T04:51:47;1.58;;;0.70;;
26588;SDS011;14235;48.532;8.722;2023-03-14T04:54:13;1.20;;;0.90;;
26588;SDS011;14235;48.532;8.722;2023-03-14T04:56:38;3.47;;;0.80;;
26588;SDS011;14235;48.532;8.722;2023-03-14T04:59:04;0.88;;;0.55;;
26588;SDS011;14235;48.532;8.722;2023-03-14T05:01:30;1.80;;;0.77;;
26588;SDS011;14235;48.532;8.722;2023-03-14T05:03:55;2.83;;;1.05;;
26588;SDS011;14235;48.532;8.722;2023-03-14T05:06:21;2.20;;;0.85;;
26588;SDS011;14235;48.532;8.722;2023-03-14T05:08:47;3.65;;;0.80;;
26588;SDS011;14235;48.532;8.722;2023-03-14T05:11:13;3.22;;;0.90;;
26588;SDS011;14235;48.532;8.722;2023-03-14T05:13:38;1.38;;;0.88;;
26588;SDS011;14235;48.532;8.722;2023-03-14T05:16:05;0.98;;;0.65;;
26588;SDS011;14235;48.532;8.722;2023-03-14T05:18:32;2.13;;;0.95;;
26588;SDS011;14235;48.532;8.722;2023-03-14T05:20:58;1.92;;;0.63;;
26588;SDS011;14235;48.532;8.722;2023-03-14T05:23:24;2.53;;;1.00;;
26588;SDS011;14235;48.532;8.722;2023-03-14T05:25:49;2.05;;;0.77;;
26588;SDS011;14235;48.532;8.722;2023-03-14T05:28:15;1.77;;;0.60;;
26588;SDS011;14235;48.532;8.722;2023-03-14T05:30:41;1.98;;;0.95;;
26588;SDS011;14235;48.532;8.722;2023-03-14T05:33:06;2.03;;;0.70;;
26588;SDS011;14235;48.532;8.722;2023-03-14T05:35:32;1.35;;;0.70;;
26588;SDS011;14235;48.532;8.722;2023-03-14T05:37:58;2.70;;;0.73;;
26588;SDS011;14235;48.532;8.722;2023-03-14T05:40:24;3.40;;;1.10;;
26588;SDS011;14235;48.532;8.722;2023-03-14T05:42:50;3.38;;;0.73;;
26588;SDS011;14235;48.532;8.722;2023-03-14T05:45:17;1.08;;;0.70;;
26588;SDS011;14235;48.532;8.722;2023-03-14T05:47:42;1.83;;;0.90;;
26588;SDS011;14235;48.532;8.722;2023-03-14T05:50:08;1.30;;;0.63;;
26588;SDS011;14235;48.532;8.722;2023-03-14T05:52:35;2.75;;;0.80;;
26588;SDS011;14235;48.532;8.722;2023-03-14T05:55:00;2.53;;;0.68;;
26588;SDS011;14235;48.532;8.722;2023-03-14T05:57:26;1.23;;;0.40;;
26588;SDS011;14235;48.532;8.722;2023-03-14T05:59:51;1.92;;;1.02;;
26588;SDS011;14235;48.532;8.722;2023-03-14T06:02:17;1.85;;;0.68;;
26588;SDS011;14235;48.532;8.722;2023-03-14T06:04:43;0.73;;;0.50;;
26588;SDS011;14235;48.532;8.722;2023-03-14T06:07:08;1.20;;;0.60;;
26588;SDS011;14235;48.532;8.722;2023-03-14T06:09:34;0.77;;;0.45;;
26588;SDS011;14235;48.532;8.722;2023-03-14T06:11:59;2.28;;;0.70;;
26588;SDS011;14235;48.532;8.722;2023-03-14T06:14:25;1.83;;;0.60;;
26588;SDS011;14235;48.532;8.722;2023-03-14T06:16:51;2.25;;;0.70;;
26588;SDS011;14235;48.532;8.722;2023-03-14T06:19:17;2.30;;;0.60;;
26588;SDS011;14235;48.532;8.722;2023-03-14T06:21:43;0.85;;;0.50;;
26588;SDS011;14235;48.532;8.722;2023-03-14T06:24:09;1.77;;;0.63;;
26588;SDS011;14235;48.532;8.722;2023-03-14T06:26:35;2.03;;;0.63;;
26588;SDS011;14235;48.532;8.722;2023-03-14T06:29:00;1.73;;;0.50;;
26588;SDS011;14235;48.532;8.722;2023-03-14T06:31:32;1.23;;;0.60;;
26588;SDS011;14235;48.532;8.722;2023-03-14T06:33:58;0.52;;;0.50;;
26588;SDS011;14235;48.532;8.722;2023-03-14T06:36:24;0.65;;;0.30;;
26588;SDS011;14235;48.532;8.722;2023-03-14T06:38:49;1.13;;;0.50;;
26588;SDS011;14235;48.532;8.722;2023-03-14T06:41:15;0.93;;;0.47;;
26588;SDS011;14235;48.532;8.722;2023-03-14T06:43:41;1.92;;;0.52;;
26588;SDS011;14235;48.532;8.722;2023-03-14T06:46:06;1.50;;;0.57;;
26588;SDS011;14235;48.532;8.722;2023-03-14T06:48:32;0.57;;;0.50;;
26588;SDS011;14235;48.532;8.722;2023-03-14T06:50:57;0.30;;;0.28;;
26588;SDS011;14235;48.532;8.722;2023-03-14T06:53:23;0.38;;;0.30;;
26588;SDS011;14235;48.532;8.722;2023-03-14T06:55:49;0.70;;;0.43;;
26588;SDS011;14235;48.532;8.722;2023-03-14T06:58:14;0.82;;;0.43;;
26588;SDS011;14235;48.532;8.722;2023-03-14T07:00:40;0.52;;;0.40;;
26588;SDS011;14235;48.532;8.722;2023-03-14T07:03:06;1.60;;;0.60;;
26588;SDS011;14235;48.532;8.722;2023-03-14T07:05:31;0.85;;;0.55;;
26588;SDS011;14235;48.532;8.722;2023-03-14T07:07:57;0.55;;;0.47;;
26588;SDS011;14235;48.532;8.722;2023-03-14T07:10:22;0.77;;;0.40;;
26588;SDS011;14235;48.532;8.722;2023-03-14T07:12:48;0.52;;;0.30;;
26588;SDS011;14235;48.532;8.722;2023-03-14T07:15:14;2.92;;;0.70;;
26588;SDS011;14235;48.532;8.722;2023-03-14T07:17:39;0.68;;;0.50;;
26588;SDS011;14235;48.532;8.722;2023-03-14T07:20:05;2.58;;;0.63;;
26588;SDS011;14235;48.532;8.722;2023-03-14T07:22:32;1.52;;;0.55;;
26588;SDS011;14235;48.532;8.722;2023-03-14T07:24:57;1.67;;;0.40;;
26588;SDS011;14235;48.532;8.722;2023-03-14T07:27:23;3.47;;;0.80;;
26588;SDS011;14235;48.532;8.722;2023-03-14T07:29:49;0.32;;;0.32;;
26588;SDS011;14235;48.532;8.722;2023-03-14T07:32:14;0.40;;;0.32;;
26588;SDS011;14235;48.532;8.722;2023-03-14T07:34:41;2.85;;;1.50;;
26588;SDS011;14235;48.532;8.722;2023-03-14T07:37:07;1.40;;;0.50;;
26588;SDS011;14235;48.532;8.722;2023-03-14T07:39:32;1.95;;;0.60;;
26588;SDS011;14235;48.532;8.722;2023-03-14T07:41:59;0.65;;;0.60;;
26588;SDS011;14235;48.532;8.722;2023-03-14T07:44:24;0.68;;;0.43;;
26588;SDS011;14235;48.532;8.722;2023-03-14T07:46:50;0.82;;;0.60;;
26588;SDS011;14235;48.532;8.722;2023-03-14T07:49:15;1.13;;;0.50;;
26588;SDS011;14235;48.532;8.722;2023-03-14T07:51:41;2.63;;;0.47;;
26588;SDS011;14235;48.532;8.722;2023-03-14T07:54:08;0.70;;;0.52;;
26588;SDS011;14235;48.532;8.722;2023-03-14T07:56:35;2.22;;;0.70;;
26588;SDS011;14235;48.532;8.722;2023-03-14T07:59:00;0.73;;;0.40;;
26588;SDS011;14235;48.532;8.722;2023-03-14T08:01:26;1.17;;;0.38;;
26588;SDS011;14235;48.532;8.722;2023-03-14T08:03:52;0.50;;;0.50;;
26588;SDS011;14235;48.532;8.722;2023-03-14T08:06:17;0.70;;;0.50;;
26588;SDS011;14235;48.532;8.722;2023-03-14T08:08:43;2.15;;;0.70;;
26588;SDS011;14235;48.532;8.722;2023-03-14T08:11:08;1.48;;;0.45;;
26588;SDS011;14235;48.532;8.722;2023-03-14T08:13:35;0.68;;;0.30;;
26588;SDS011;14235;48.532;8.722;2023-03-14T08:16:01;0.43;;;0.30;;
26588;SDS011;14235;48.532;8.722;2023-03-14T08:18:27;0.45;;;0.40;;
26588;SDS011;14235;48.532;8.722;2023-03-14T08:20:52;0.77;;;0.28;;
26588;SDS011;14235;48.532;8.722;2023-03-14T08:23:18;1.67;;;0.65;;
26588;SDS011;14235;48.532;8.722;2023-03-14T08:25:43;1.45;;;0.60;;
26588;SDS011;14235;48.532;8.722;2023-03-14T08:28:09;0.40;;;0.40;;
26588;SDS011;14235;48.532;8.722;2023-03-14T08:30:34;1.00;;;0.40;;
26588;SDS011;14235;48.532;8.722;2023-03-14T08:33:01;1.02;;;0.45;;
26588;SDS011;14235;48.532;8.722;2023-03-14T08:35:27;0.52;;;0.50;;
26588;SDS011;14235;48.532;8.722;2023-03-14T08:37:52;0.52;;;0.50;;
26588;SDS011;14235;48.532;8.722;2023-03-14T08:40:18;0.90;;;0.43;;
26588;SDS011;14235;48.532;8.722;2023-03-14T08:42:44;0.47;;;0.40;;
26588;SDS011;14235;48.532;8.722;2023-03-14T08:45:11;0.82;;;0.40;;
26588;SDS011;14235;48.532;8.722;2023-03-14T08:47:38;0.73;;;0.40;;
26588;SDS011;14235;48.532;8.722;2023-03-14T08:50:04;0.30;;;0.30;;
26588;SDS011;14235;48.532;8.722;2023-03-14T08:52:31;0.70;;;0.25;;
26588;SDS011;14235;48.532;8.722;2023-03-14T08:54:57;0.47;;;0.30;;
26588;SDS011;14235;48.532;8.722;2023-03-14T08:57:23;0.57;;;0.32;;
26588;SDS011;14235;48.532;8.722;2023-03-14T08:59:52;0.50;;;0.30;;
26588;SDS011;14235;48.532;8.722;2023-03-14T09:02:19;0.73;;;0.20;;
26588;SDS011;14235;48.532;8.722;2023-03-14T09:04:45;0.45;;;0.35;;
26588;SDS011;14235;48.532;8.722;2023-03-14T09:07:11;0.80;;;0.10;;
26588;SDS011;14235;48.532;8.722;2023-03-14T09:09:36;0.73;;;0.45;;
26588;SDS011;14235;48.532;8.722;2023-03-14T09:12:02;0.30;;;0.30;;
26588;SDS011;14235;48.532;8.722;2023-03-14T09:14:28;0.60;;;0.47;;
26588;SDS011;14235;48.532;8.722;2023-03-14T09:16:54;1.65;;;0.40;;
26588;SDS011;14235;48.532;8.722;2023-03-14T09:19:20;1.20;;;0.20;;
26588;SDS011;14235;48.532;8.722;2023-03-14T09:21:45;0.10;;;0.10;;
26588;SDS011;14235;48.532;8.722;2023-03-14T09:24:11;0.68;;;0.38;;
26588;SDS011;14235;48.532;8.722;2023-03-14T09:26:37;0.20;;;0.20;;
26588;SDS011;14235;48.532;8.722;2023-03-14T09:29:02;0.20;;;0.20;;
26588;SDS011;14235;48.532;8.722;2023-03-14T09:31:28;0.20;;;0.20;;
26588;SDS011;14235;48.532;8.722;2023-03-14T09:33:54;1.08;;;0.38;;
26588;SDS011;14235;48.532;8.722;2023-03-14T09:36:20;0.30;;;0.30;;
26588;SDS011;14235;48.532;8.722;2023-03-14T09:38:45;0.20;;;0.20;;
26588;SDS011;14235;48.532;8.722;2023-03-14T09:41:15;1.55;;;0.50;;
26588;SDS011;14235;48.532;8.722;2023-03-14T09:43:48;0.63;;;0.30;;
26588;SDS011;14235;48.532;8.722;2023-03-14T09:46:19;0.57;;;0.40;;
26588;SDS011;14235;48.532;8.722;2023-03-14T09:48:46;1.00;;;0.40;;
26588;SDS011;14235;48.532;8.722;2023-03-14T09:51:16;0.32;;;0.30;;
26588;SDS011;14235;48.532;8.722;2023-03-14T09:53:46;0.15;;;0.15;;
26588;SDS011;14235;48.532;8.722;2023-03-14T09:56:33;0.52;;;0.30;;
26588;SDS011;14235;48.532;8.722;2023-03-14T09:59:00;1.92;;;0.43;;
26588;SDS011;14235;48.532;8.722;2023-03-14T10:01:31;0.25;;;0.20;;
26588;SDS011;14235;48.532;8.722;2023-03-14T10:04:05;0.68;;;0.47;;
26588;SDS011;14235;48.532;8.722;2023-03-14T10:06:35;0.20;;;0.20;;
26588;SDS011;14235;48.532;8.722;2023-03-14T10:09:01;0.98;;;0.30;;
26588;SDS011;14235;48.532;8.722;2023-03-14T10:11:28;0.30;;;0.30;;
26588;SDS011;14235;48.532;8.722;2023-03-14T10:14:07;0.57;;;0.25;;
26588;SDS011;14235;48.532;8.722;2023-03-14T10:16:36;0.10;;;0.10;;
26588;SDS011;14235;48.532;8.722;2023-03-14T10:19:13;1.13;;;0.50;;
26588;SDS011;14235;48.532;8.722;2023-03-14T10:21:41;0.50;;;0.30;;
26588;SDS011;14235;48.532;8.722;2023-03-14T10:24:21;0.32;;;0.32;;
26588;SDS011;14235;48.532;8.722;2023-03-14T10:26:53;0.40;;;0.40;;
26588;SDS011;14235;48.532;8.722;2023-03-14T10:29:23;0.10;;;0.10;;
26588;SDS011;14235;48.532;8.722;2023-03-14T10:32:02;0.47;;;0.20;;
26588;SDS011;14235;48.532;8.722;2023-03-14T10:34:38;0.43;;;0.30;;
26588;SDS011;14235;48.532;8.722;2023-03-14T10:37:12;0.25;;;0.20;;
26588;SDS011;14235;48.532;8.722;2023-03-14T10:39:50;0.93;;;0.43;;
26588;SDS011;14235;48.532;8.722;2023-03-14T10:44:55;0.68;;;0.68;;
26588;SDS011;14235;48.532;8.722;2023-03-14T10:47:24;0.32;;;0.32;;
26588;SDS011;14235;48.532;8.722;2023-03-14T10:49:53;0.95;;;0.50;;
26588;SDS011;14235;48.532;8.722;2023-03-14T10:55:01;0.65;;;0.20;;
26588;SDS011;14235;48.532;8.722;2023-03-14T10:57:29;0.38;;;0.35;;
26588;SDS011;14235;48.532;8.722;2023-03-14T11:02:28;0.65;;;0.20;;
26588;SDS011;14235;48.532;8.722;2023-03-14T11:05:27;0.60;;;0.28;;
26588;SDS011;14235;48.532;8.722;2023-03-14T11:08:08;0.50;;;0.32;;
26588;SDS011;14235;48.532;8.722;2023-03-14T11:10:40;0.73;;;0.50;;
26588;SDS011;14235;48.532;8.722;2023-03-14T11:15:51;0.30;;;0.30;;
26588;SDS011;14235;48.532;8.722;2023-03-14T11:18:29;0.52;;;0.50;;
26588;SDS011;14235;48.532;8.722;2023-03-14T11:21:11;0.30;;;0.30;;
26588;SDS011;14235;48.532;8.722;2023-03-14T11:23:46;0.30;;;0.30;;
26588;SDS011;14235;48.532;8.722;2023-03-14T11:27:03;0.30;;;0.30;;
26588;SDS011;14235;48.532;8.722;2023-03-14T11:29:45;0.43;;;0.20;;
26588;SDS011;14235;48.532;8.722;2023-03-14T11:40:36;0.20;;;0.20;;
26588;SDS011;14235;48.532;8.722;2023-03-14T11:43:06;0.20;;;0.20;;
26588;SDS011;14235;48.532;8.722;2023-03-14T11:45:49;0.43;;;0.30;;
26588;SDS011;14235;48.532;8.722;2023-03-14T11:48:18;0.10;;;0.10;;
26588;SDS011;14235;48.532;8.722;2023-03-14T11:50:55;1.35;;;0.30;;
26588;SDS011;14235;48.532;8.722;2023-03-14T11:53:39;0.20;;;0.20;;
26588;SDS011;14235;48.532;8.722;2023-03-14T11:56:10;1.55;;;0.40;;
26588;SDS011;14235;48.532;8.722;2023-03-14T11:58:44;0.30;;;0.30;;
26588;SDS011;14235;48.532;8.722;2023-03-14T12:01:16;0.20;;;0.20;;
26588;SDS011;14235;48.532;8.722;2023-03-14T12:03:50;0.75;;;0.30;;
26588;SDS011;14235;48.532;8.722;2023-03-14T12:06:25;0.20;;;0.20;;
26588;SDS011;14235;48.532;8.722;2023-03-14T12:09:13;0.30;;;0.20;;
26588;SDS011;14235;48.532;8.722;2023-03-14T12:11:56;0.13;;;0.13;;
26588;SDS011;14235;48.532;8.722;2023-03-14T12:14:25;0.40;;;0.28;;
26588;SDS011;14235;48.532;8.722;2023-03-14T12:16:53;0.80;;;0.20;;
26588;SDS011;14235;48.532;8.722;2023-03-14T12:21:54;0.63;;;0.30;;
26588;SDS011;14235;48.532;8.722;2023-03-14T12:24:34;0.43;;;0.25;;
26588;SDS011;14235;48.532;8.722;2023-03-14T12:27:03;0.38;;;0.22;;
26588;SDS011;14235;48.532;8.722;2023-03-14T12:29:30;0.65;;;0.35;;
26588;SDS011;14235;48.532;8.722;2023-03-14T12:32:12;0.82;;;0.30;;
26588;SDS011;14235;48.532;8.722;2023-03-14T12:34:50;0.32;;;0.28;;
26588;SDS011;14235;48.532;8.722;2023-03-14T12:37:23;0.50;;;0.40;;
26588;SDS011;14235;48.532;8.722;2023-03-14T12:40:15;0.30;;;0.30;;
26588;SDS011;14235;48.532;8.722;2023-03-14T12:43:03;0.85;;;0.40;;
26588;SDS011;14235;48.532;8.722;2023-03-14T12:45:36;0.22;;;0.22;;
26588;SDS011;14235;48.532;8.722;2023-03-14T12:48:07;0.30;;;0.30;;
26588;SDS011;14235;48.532;8.722;2023-03-14T12:50:40;0.95;;;0.28;;
26588;SDS011;14235;48.532;8.722;2023-03-14T13:01:37;0.63;;;0.60;;
26588;SDS011;14235;48.532;8.722;2023-03-14T13:04:19;1.00;;;0.63;;
26588;SDS011;14235;48.532;8.722;2023-03-14T13:06:54;0.70;;;0.63;;
26588;SDS011;14235;48.532;8.722;2023-03-14T13:14:33;1.17;;;0.60;;
26588;SDS011;14235;48.532;8.722;2023-03-14T13:17:00;0.65;;;0.50;;
26588;SDS011;14235;48.532;8.722;2023-03-14T13:19:27;1.13;;;0.40;;
26588;SDS011;14235;48.532;8.722;2023-03-14T13:21:56;0.68;;;0.55;;
26588;SDS011;14235;48.532;8.722;2023-03-14T13:24:27;0.82;;;0.60;;
26588;SDS011;14235;48.532;8.722;2023-03-14T13:26:56;1.25;;;0.50;;
26588;SDS011;14235;48.532;8.722;2023-03-14T13:29:23;1.38;;;0.73;;
26588;SDS011;14235;48.532;8.722;2023-03-14T13:31:51;1.48;;;0.50;;
26588;SDS011;14235;48.532;8.722;2023-03-14T13:34:19;2.40;;;0.85;;
26588;SDS011;14235;48.532;8.722;2023-03-14T13:36:45;2.92;;;0.60;;
26588;SDS011;14235;48.532;8.722;2023-03-14T13:39:16;3.65;;;1.10;;
26588;SDS011;14235;48.532;8.722;2023-03-14T13:41:43;0.80;;;0.60;;
26588;SDS011;14235;48.532;8.722;2023-03-14T13:44:13;1.65;;;0.70;;
26588;SDS011;14235;48.532;8.722;2023-03-14T13:46:49;2.50;;;0.55;;
26588;SDS011;14235;48.532;8.722;2023-03-14T13:49:24;2.05;;;0.85;;
26588;SDS011;14235;48.532;8.722;2023-03-14T13:51:51;2.08;;;0.68;;
26588;SDS011;14235;48.532;8.722;2023-03-14T13:54:17;1.40;;;0.70;;
26588;SDS011;14235;48.532;8.722;2023-03-14T13:56:44;2.10;;;0.65;;
26588;SDS011;14235;48.532;8.722;2023-03-14T14:02:22;1.00;;;0.80;;
26588;SDS011;14235;48.532;8.722;2023-03-14T14:04:49;1.05;;;0.70;;
26588;SDS011;14235;48.532;8.722;2023-03-14T14:07:15;1.50;;;0.70;;
26588;SDS011;14235;48.532;8.722;2023-03-14T14:09:44;2.03;;;0.70;;
26588;SDS011;14235;48.532;8.722;2023-03-14T14:12:14;0.60;;;0.57;;
26588;SDS011;14235;48.532;8.722;2023-03-14T14:15:03;1.88;;;0.73;;
26588;SDS011;14235;48.532;8.722;2023-03-14T14:17:46;1.75;;;0.70;;
26588;SDS011;14235;48.532;8.722;2023-03-14T14:22:43;1.88;;;0.65;;
26588;SDS011;14235;48.532;8.722;2023-03-14T14:25:12;1.00;;;0.88;;
26588;SDS011;14235;48.532;8.722;2023-03-14T14:27:41;2.25;;;0.85;;
26588;SDS011;14235;48.532;8.722;2023-03-14T14:32:43;1.80;;;0.70;;
26588;SDS011;14235;48.532;8.722;2023-03-14T14:37:56;3.20;;;0.70;;
26588;SDS011;14235;48.532;8.722;2023-03-14T14:40:23;1.98;;;0.50;;
26588;SDS011;14235;48.532;8.722;2023-03-14T14:42:51;1.95;;;0.80;;
26588;SDS011;14235;48.532;8.722;2023-03-14T14:45:18;1.25;;;0.75;;
26588;SDS011;14235;48.532;8.722;2023-03-14T14:47:49;1.77;;;0.60;;
26588;SDS011;14235;48.532;8.722;2023-03-14T14:50:28;2.40;;;0.90;;
26588;SDS011;14235;48.532;8.722;2023-03-14T14:52:58;0.88;;;0.70;;
26588;SDS011;14235;48.532;8.722;2023-03-14T14:55:29;2.70;;;0.80;;
26588;SDS011;14235;48.532;8.722;2023-03-14T14:57:58;1.95;;;0.70;;
26588;SDS011;14235;48.532;8.722;2023-03-14T15:00:59;0.95;;;0.82;;
26588;SDS011;14235;48.532;8.722;2023-03-14T15:03:41;1.35;;;0.80;;
26588;SDS011;14235;48.532;8.722;2023-03-14T15:06:08;0.95;;;0.60;;
26588;SDS011;14235;48.532;8.722;2023-03-14T15:08:37;1.63;;;0.70;;
26588;SDS011;14235;48.532;8.722;2023-03-14T15:11:02;1.55;;;0.80;;
26588;SDS011;14235;48.532;8.722;2023-03-14T15:13:28;2.13;;;0.63;;
26588;SDS011;14235;48.532;8.722;2023-03-14T15:15:54;0.95;;;0.75;;
26588;SDS011;14235;48.532;8.722;2023-03-14T15:18:23;1.90;;;1.15;;
26588;SDS011;14235;48.532;8.722;2023-03-14T15:20:50;1.55;;;0.82;;
26588;SDS011;14235;48.532;8.722;2023-03-14T15:23:17;1.48;;;0.80;;
26588;SDS011;14235;48.532;8.722;2023-03-14T15:25:46;1.63;;;0.75;;
26588;SDS011;14235;48.532;8.722;2023-03-14T15:28:18;1.88;;;0.85;;
26588;SDS011;14235;48.532;8.722;2023-03-14T15:30:54;1.50;;;0.80;;
26588;SDS011;14235;48.532;8.722;2023-03-14T15:33:21;2.08;;;1.10;;
26588;SDS011;14235;48.532;8.722;2023-03-14T15:35:48;1.15;;;0.70;;
26588;SDS011;14235;48.532;8.722;2023-03-14T15:38:15;0.50;;;0.50;;
26588;SDS011;14235;48.532;8.722;2023-03-14T15:40:46;1.83;;;0.98;;
26588;SDS011;14235;48.532;8.722;2023-03-14T15:43:12;4.22;;;0.80;;
26588;SDS011;14235;48.532;8.722;2023-03-14T15:45:38;1.83;;;0.85;;
26588;SDS011;14235;48.532;8.722;2023-03-14T15:48:04;3.03;;;0.77;;
26588;SDS011;14235;48.532;8.722;2023-03-14T15:50:29;1.05;;;0.60;;
26588;SDS011;14235;48.532;8.722;2023-03-14T15:52:55;3.60;;;0.93;;